aviador You're here:

KMEI Decoded Metar

MERIDIAN/KEY FLD in MS, USA
Report Time2017-06-25 17:58:00
UTC Time2017-06-25 19:05:11
Flight Rules Old
Wind010° at 06 kt
W.Decomp.*RWY 01: 6.0 kt HW 0.2 kt RCW
RWY 04: 5.3 kt HW 2.8 kt LCW
W.Rank010° ranks 9
Current wind is below 010° avg. (7.6)
Visibility9999 m
Phenomena:N/A
Clouds:Few 075 Hf
Broken 100 Hf
Expected CloudBase > 2,000 ft AGL from Temp-Dew spread
Ceiling10,000 ft
Temp26°C (ISA +12)
Dew Point21°C (74% RH)
QNH1023 hPa
Density Alt1,624 ft
Elevation292 ft
Report Wrong Elevation
Raw Report
KMEI 251758Z 01006KT 10SM FEW075 BKN100 26/21 A3021 RMK AO2
RAB37E45 SLP224 P0000 60000 T02610206 10261 20228 50000=

Extra information for KMEI:More info

Metar Taf Metar & Taf Last 4 Metars F.Rules Stats Wind Profile Meteogram Temp Stats Airport Information Weather charts Add Link Nearby VenuesMetar ALERT Operation Metar Decoded Social comments

AIRNAV info for KMEI